Grass Valley, California
Current Conditions -  °F | °C
As of 9:20 PM on Saturday 25 Oct 2014 (Local Time) from KGOO Reporting Station
Overcast Overcast  
Wind Chill: 10°   Ceiling: 200
Heat Index: 10°   Visibility: 4mi
Dew Point: 10°   Wind: 7mph
Humidity: 100%   Direction: 190°S
Pressure: 30.13"   Gusts: NA
Location:  39.22°N, 121.06°W
Report Text: KGOO 260420Z AUTO 19006KT 4SM OVC002 10/10 A3013 RMK AO1
Loading
Personal Weather Stations






























Interactive Weather Map
Tropical Storm Tracking
New forecast layout! Learn more

10-Day Weather Forecast

Advertisements
Track Severe Weather on mobile